Home   Weather   Odin   Past weeks
Flag for USA

Past Weather in Odin, USA — Yesterday and Last 2 Weeks

Currently: 75 °F. Clear. (Weather station: Effingham County Memorial Airport, USA). See more current weather

Past Weather in Odin — Graph

°F

Odin Temperature Yesterday

Maximum temperature yesterday: 82 °F (at 2:00 pm)
Minimum temperature yesterday: 57 °F (at 5:18 am)
Average temperature yesterday: 70 °F

High & Low Weather Summary for the Past Weeks

 TemperatureHumidityPressure
High88 °F (May 19, 2:58 pm)100% (May 14, 11:59 pm)30.10 "Hg (May 14, 11:59 pm)
Low53 °F (May 16, 5:35 am)43% (May 19, 2:58 pm)29.65 "Hg (May 14, 6:17 pm)
Average67 °F84%29.88 "Hg
* Reported May 4 7:35 pm — May 19 7:55 pm, Odin. Weather by CustomWeather, © 2024

Note: Actual official high and low records may vary slightly from our data, if they occured in-between our weather recording intervals... More about our weather records

Odin Weather History for the Previous 24 Hours

Scroll right to see more
 ConditionsComfort  
Time TempWeatherWind HumidityBarometerVisibility
7:55 pm
Sun, May 19
78 °FSunny.No wind72%29.95 "Hg10 mi
7:10 pm83 °FSunny.No wind50%29.94 "Hg10 mi
6:58 pm82 °FSunny.5 mph51%29.94 "Hg10 mi
6:40 pm84 °FSunny.6 mph48%29.94 "Hg10 mi
6:18 pm84 °FSunny.5 mph48%29.94 "Hg10 mi
6:00 pm86 °FSunny.6 mph46%29.95 "Hg10 mi
5:18 pm86 °FSunny.6 mph43%29.95 "Hg10 mi
4:58 pm88 °FSunny.7 mph43%29.95 "Hg10 mi
4:40 pm88 °FSunny.6 mph43%29.96 "Hg10 mi
4:18 pm88 °FSunny.7 mph43%29.96 "Hg10 mi
4:00 pm87 °FSunny.6 mph45%29.96 "Hg10 mi
3:42 pm88 °FSunny.6 mph43%29.97 "Hg10 mi
2:58 pm88 °FScattered clouds.3 mph43%29.98 "Hg10 mi
2:18 pm86 °FSunny.No wind46%29.98 "Hg10 mi
1:55 pm86 °FSunny.6 mph47%29.99 "Hg10 mi
1:18 pm84 °FSunny.5 mph51%29.99 "Hg10 mi
1:00 pm86 °FSunny.3 mph46%29.99 "Hg10 mi
12:20 pm84 °FSunny.No wind51%30.00 "Hg10 mi
11:58 am84 °FScattered clouds.7 mph51%30.01 "Hg10 mi
11:18 am82 °FSunny.6 mph55%30.02 "Hg10 mi
10:55 am83 °FSunny.No wind56%30.03 "Hg10 mi
10:38 am82 °FSunny.No wind55%30.04 "Hg10 mi
10:18 am82 °FSunny.5 mph58%30.04 "Hg10 mi
9:55 am81 °FSunny.5 mph60%30.04 "Hg10 mi
9:40 am80 °FSunny.5 mph63%30.04 "Hg10 mi
9:10 am77 °FSunny.5 mph65%30.04 "Hg10 mi
8:18 am73 °FSunny.3 mph74%30.04 "Hg10 mi
7:58 am72 °FSunny.3 mph78%30.03 "Hg10 mi
6:58 am64 °FSunny.No wind94%30.01 "Hg10 mi
5:50 am60 °FSunny.No wind99%29.99 "Hg10 mi
5:18 am61 °FClear.No wind100%29.98 "Hg7 mi
5:00 am61 °FClear.No wind100%29.98 "Hg10 mi
4:35 am61 °FClear.No wind99%29.98 "Hg10 mi
4:20 am61 °FClear.No wind100%29.97 "Hg10 mi
3:58 am61 °FClear.No wind100%29.97 "Hg7 mi
3:35 am61 °FClear.No wind99%29.97 "Hg10 mi
3:01 am61 °FClear.No wind100%29.97 "Hg10 mi
2:18 am63 °FClear.No wind94%29.96 "Hg10 mi
2:00 am62 °FClear.No wind98%29.96 "Hg10 mi
1:18 am63 °FClear.No wind100%29.96 "Hg10 mi
12:58 am63 °FClear.No wind100%29.96 "Hg10 mi
12:35 am64 °FClear.No wind97%29.96 "Hg10 mi
12:15 am64 °FClear.No wind96%29.96 "Hg10 mi
11:55 pm
Sat, May 18
64 °FClear.No wind95%29.96 "Hg10 mi
11:35 pm65 °FClear.No wind96%29.95 "Hg10 mi
11:19 pm64 °FClear.No wind100%29.95 "Hg10 mi
10:50 pm65 °FClear.No wind95%29.94 "Hg10 mi
10:18 pm66 °FClear.No wind94%29.94 "Hg10 mi
10:00 pm66 °FClear.No wind94%29.93 "Hg10 mi
9:38 pm66 °FClear.No wind94%29.93 "Hg10 mi
9:15 pm68 °FClear.No wind92%29.92 "Hg10 mi
Weather by CustomWeather, © 2024

See weather overview